sensor_id;sensor_type;location;lat;lon;timestamp;P1;durP1;ratioP1;P2;durP2;ratioP2
19004;SDS011;9635;52.078;8.648;2023-09-18T00:02:44;7.13;;;6.47;;
19004;SDS011;9635;52.078;8.648;2023-09-18T00:07:48;10.35;;;6.07;;
19004;SDS011;9635;52.078;8.648;2023-09-18T00:12:51;11.63;;;6.70;;
19004;SDS011;9635;52.078;8.648;2023-09-18T00:17:54;8.23;;;6.60;;
19004;SDS011;9635;52.078;8.648;2023-09-18T00:22:58;9.50;;;6.25;;
19004;SDS011;9635;52.078;8.648;2023-09-18T00:28:01;7.53;;;6.38;;
19004;SDS011;9635;52.078;8.648;2023-09-18T00:33:04;9.45;;;6.90;;
19004;SDS011;9635;52.078;8.648;2023-09-18T00:38:08;8.50;;;6.40;;
19004;SDS011;9635;52.078;8.648;2023-09-18T00:43:11;10.68;;;7.20;;
19004;SDS011;9635;52.078;8.648;2023-09-18T00:48:15;8.23;;;6.47;;
19004;SDS011;9635;52.078;8.648;2023-09-18T00:53:20;8.52;;;6.45;;
19004;SDS011;9635;52.078;8.648;2023-09-18T00:58:26;9.70;;;6.00;;
19004;SDS011;9635;52.078;8.648;2023-09-18T01:03:29;8.95;;;6.88;;
19004;SDS011;9635;52.078;8.648;2023-09-18T01:08:36;10.95;;;6.60;;
19004;SDS011;9635;52.078;8.648;2023-09-18T01:13:41;11.57;;;6.97;;
19004;SDS011;9635;52.078;8.648;2023-09-18T01:18:51;9.70;;;6.75;;
19004;SDS011;9635;52.078;8.648;2023-09-18T01:23:56;10.77;;;6.72;;
19004;SDS011;9635;52.078;8.648;2023-09-18T01:28:59;11.52;;;6.88;;
19004;SDS011;9635;52.078;8.648;2023-09-18T01:34:02;11.73;;;6.90;;
19004;SDS011;9635;52.078;8.648;2023-09-18T01:39:06;9.75;;;7.18;;
19004;SDS011;9635;52.078;8.648;2023-09-18T01:44:11;12.23;;;7.32;;
19004;SDS011;9635;52.078;8.648;2023-09-18T01:49:14;12.85;;;6.63;;
19004;SDS011;9635;52.078;8.648;2023-09-18T01:54:18;8.93;;;7.32;;
19004;SDS011;9635;52.078;8.648;2023-09-18T01:59:21;12.30;;;7.53;;
19004;SDS011;9635;52.078;8.648;2023-09-18T02:04:25;8.90;;;6.60;;
19004;SDS011;9635;52.078;8.648;2023-09-18T02:09:50;9.65;;;6.80;;
19004;SDS011;9635;52.078;8.648;2023-09-18T02:14:53;9.30;;;7.10;;
19004;SDS011;9635;52.078;8.648;2023-09-18T02:19:58;9.40;;;7.00;;
19004;SDS011;9635;52.078;8.648;2023-09-18T02:25:04;10.32;;;7.25;;
19004;SDS011;9635;52.078;8.648;2023-09-18T02:30:07;13.40;;;6.72;;
19004;SDS011;9635;52.078;8.648;2023-09-18T02:35:11;10.75;;;6.47;;
19004;SDS011;9635;52.078;8.648;2023-09-18T02:40:16;10.38;;;7.55;;
19004;SDS011;9635;52.078;8.648;2023-09-18T02:45:18;12.55;;;7.03;;
19004;SDS011;9635;52.078;8.648;2023-09-18T02:50:21;14.25;;;7.10;;
19004;SDS011;9635;52.078;8.648;2023-09-18T02:55:26;12.13;;;7.20;;
19004;SDS011;9635;52.078;8.648;2023-09-18T03:00:28;10.13;;;6.60;;
19004;SDS011;9635;52.078;8.648;2023-09-18T03:05:45;11.30;;;7.55;;
19004;SDS011;9635;52.078;8.648;2023-09-18T03:10:49;11.80;;;6.40;;
19004;SDS011;9635;52.078;8.648;2023-09-18T03:15:52;11.85;;;6.40;;
19004;SDS011;9635;52.078;8.648;2023-09-18T03:20:55;9.93;;;6.72;;
19004;SDS011;9635;52.078;8.648;2023-09-18T03:26:02;7.50;;;6.15;;
19004;SDS011;9635;52.078;8.648;2023-09-18T03:31:05;12.55;;;6.10;;
19004;SDS011;9635;52.078;8.648;2023-09-18T03:36:09;9.77;;;6.97;;
19004;SDS011;9635;52.078;8.648;2023-09-18T03:41:14;11.32;;;6.13;;
19004;SDS011;9635;52.078;8.648;2023-09-18T03:46:17;9.43;;;5.72;;
19004;SDS011;9635;52.078;8.648;2023-09-18T03:51:23;8.60;;;6.28;;
19004;SDS011;9635;52.078;8.648;2023-09-18T03:56:27;8.88;;;6.45;;
19004;SDS011;9635;52.078;8.648;2023-09-18T04:01:30;8.10;;;5.88;;
19004;SDS011;9635;52.078;8.648;2023-09-18T04:06:36;8.73;;;6.28;;
19004;SDS011;9635;52.078;8.648;2023-09-18T04:11:44;6.32;;;5.35;;
19004;SDS011;9635;52.078;8.648;2023-09-18T04:16:47;8.27;;;6.57;;
19004;SDS011;9635;52.078;8.648;2023-09-18T04:21:53;10.07;;;6.50;;
19004;SDS011;9635;52.078;8.648;2023-09-18T04:26:57;7.75;;;5.43;;
19004;SDS011;9635;52.078;8.648;2023-09-18T04:32:00;9.10;;;5.70;;
19004;SDS011;9635;52.078;8.648;2023-09-18T04:37:05;6.88;;;5.68;;
19004;SDS011;9635;52.078;8.648;2023-09-18T04:42:10;8.60;;;5.85;;
19004;SDS011;9635;52.078;8.648;2023-09-18T04:47:13;13.95;;;6.80;;
19004;SDS011;9635;52.078;8.648;2023-09-18T04:52:16;8.68;;;6.00;;
19004;SDS011;9635;52.078;8.648;2023-09-18T04:57:21;9.63;;;6.15;;
19004;SDS011;9635;52.078;8.648;2023-09-18T05:02:24;8.52;;;6.85;;
19004;SDS011;9635;52.078;8.648;2023-09-18T05:07:27;8.90;;;6.43;;
19004;SDS011;9635;52.078;8.648;2023-09-18T05:12:31;9.20;;;6.90;;
19004;SDS011;9635;52.078;8.648;2023-09-18T05:17:41;6.93;;;6.15;;
19004;SDS011;9635;52.078;8.648;2023-09-18T05:22:45;9.88;;;6.60;;
19004;SDS011;9635;52.078;8.648;2023-09-18T05:27:49;9.73;;;7.03;;
19004;SDS011;9635;52.078;8.648;2023-09-18T05:32:57;8.15;;;7.15;;
19004;SDS011;9635;52.078;8.648;2023-09-18T05:38:06;42.88;;;9.52;;
19004;SDS011;9635;52.078;8.648;2023-09-18T05:43:11;13.02;;;8.80;;
19004;SDS011;9635;52.078;8.648;2023-09-18T05:48:14;11.23;;;8.98;;
19004;SDS011;9635;52.078;8.648;2023-09-18T05:53:17;9.30;;;8.13;;
19004;SDS011;9635;52.078;8.648;2023-09-18T05:58:21;11.48;;;8.30;;
19004;SDS011;9635;52.078;8.648;2023-09-18T06:03:26;9.05;;;7.30;;
19004;SDS011;9635;52.078;8.648;2023-09-18T06:08:32;8.68;;;7.53;;
19004;SDS011;9635;52.078;8.648;2023-09-18T06:13:36;12.52;;;8.75;;
19004;SDS011;9635;52.078;8.648;2023-09-18T06:18:39;9.30;;;7.15;;
19004;SDS011;9635;52.078;8.648;2023-09-18T06:23:43;9.88;;;7.38;;
19004;SDS011;9635;52.078;8.648;2023-09-18T06:28:47;9.60;;;7.07;;
19004;SDS011;9635;52.078;8.648;2023-09-18T06:33:53;11.00;;;7.05;;
19004;SDS011;9635;52.078;8.648;2023-09-18T06:38:56;12.98;;;7.28;;
19004;SDS011;9635;52.078;8.648;2023-09-18T06:44:01;10.02;;;6.28;;
19004;SDS011;9635;52.078;8.648;2023-09-18T06:49:05;12.13;;;6.15;;
19004;SDS011;9635;52.078;8.648;2023-09-18T06:54:07;8.02;;;6.30;;
19004;SDS011;9635;52.078;8.648;2023-09-18T06:59:14;8.40;;;6.38;;
19004;SDS011;9635;52.078;8.648;2023-09-18T07:04:18;8.32;;;5.20;;
19004;SDS011;9635;52.078;8.648;2023-09-18T07:09:21;6.45;;;5.50;;
19004;SDS011;9635;52.078;8.648;2023-09-18T07:14:26;9.43;;;5.55;;
19004;SDS011;9635;52.078;8.648;2023-09-18T07:19:28;6.25;;;5.45;;
19004;SDS011;9635;52.078;8.648;2023-09-18T07:24:31;6.20;;;5.03;;
19004;SDS011;9635;52.078;8.648;2023-09-18T07:29:35;7.80;;;5.03;;
19004;SDS011;9635;52.078;8.648;2023-09-18T07:34:38;9.20;;;4.60;;
19004;SDS011;9635;52.078;8.648;2023-09-18T07:39:41;6.30;;;4.82;;
19004;SDS011;9635;52.078;8.648;2023-09-18T07:44:46;8.57;;;3.97;;
19004;SDS011;9635;52.078;8.648;2023-09-18T07:49:49;9.05;;;4.53;;
19004;SDS011;9635;52.078;8.648;2023-09-18T07:54:51;6.47;;;3.35;;
19004;SDS011;9635;52.078;8.648;2023-09-18T07:59:56;6.80;;;3.55;;
19004;SDS011;9635;52.078;8.648;2023-09-18T08:04:59;9.23;;;3.70;;
19004;SDS011;9635;52.078;8.648;2023-09-18T08:10:02;7.35;;;3.45;;
19004;SDS011;9635;52.078;8.648;2023-09-18T08:15:11;6.95;;;2.65;;
19004;SDS011;9635;52.078;8.648;2023-09-18T08:20:14;4.28;;;1.73;;
19004;SDS011;9635;52.078;8.648;2023-09-18T08:25:17;8.48;;;1.95;;
19004;SDS011;9635;52.078;8.648;2023-09-18T08:30:22;5.68;;;2.22;;
19004;SDS011;9635;52.078;8.648;2023-09-18T08:35:25;4.10;;;1.65;;
19004;SDS011;9635;52.078;8.648;2023-09-18T08:40:30;7.28;;;2.10;;
19004;SDS011;9635;52.078;8.648;2023-09-18T08:45:37;6.03;;;2.92;;
19004;SDS011;9635;52.078;8.648;2023-09-18T08:50:45;5.03;;;1.88;;
19004;SDS011;9635;52.078;8.648;2023-09-18T08:55:49;5.03;;;1.55;;
19004;SDS011;9635;52.078;8.648;2023-09-18T09:00:53;4.22;;;1.77;;
19004;SDS011;9635;52.078;8.648;2023-09-18T09:05:57;6.10;;;1.88;;
19004;SDS011;9635;52.078;8.648;2023-09-18T09:11:02;4.05;;;2.13;;
19004;SDS011;9635;52.078;8.648;2023-09-18T09:16:07;7.07;;;2.20;;
19004;SDS011;9635;52.078;8.648;2023-09-18T09:21:14;5.43;;;2.00;;
19004;SDS011;9635;52.078;8.648;2023-09-18T09:26:18;4.57;;;2.05;;
19004;SDS011;9635;52.078;8.648;2023-09-18T09:31:24;7.05;;;2.25;;
19004;SDS011;9635;52.078;8.648;2023-09-18T09:36:29;2.35;;;1.73;;
19004;SDS011;9635;52.078;8.648;2023-09-18T09:41:34;6.93;;;2.10;;
19004;SDS011;9635;52.078;8.648;2023-09-18T09:46:39;5.88;;;1.90;;
19004;SDS011;9635;52.078;8.648;2023-09-18T09:51:47;8.40;;;2.05;;
19004;SDS011;9635;52.078;8.648;2023-09-18T09:56:50;7.65;;;2.05;;
19004;SDS011;9635;52.078;8.648;2023-09-18T10:01:56;5.15;;;2.28;;
19004;SDS011;9635;52.078;8.648;2023-09-18T10:07:05;6.90;;;1.80;;
19004;SDS011;9635;52.078;8.648;2023-09-18T10:12:11;4.15;;;1.50;;
19004;SDS011;9635;52.078;8.648;2023-09-18T10:17:19;4.15;;;1.70;;
19004;SDS011;9635;52.078;8.648;2023-09-18T10:22:24;5.00;;;1.67;;
19004;SDS011;9635;52.078;8.648;2023-09-18T10:27:33;3.20;;;1.53;;
19004;SDS011;9635;52.078;8.648;2023-09-18T10:32:41;3.22;;;2.00;;
19004;SDS011;9635;52.078;8.648;2023-09-18T10:37:48;2.00;;;1.33;;
19004;SDS011;9635;52.078;8.648;2023-09-18T10:42:52;4.85;;;2.28;;
19004;SDS011;9635;52.078;8.648;2023-09-18T10:48:00;6.18;;;1.30;;
19004;SDS011;9635;52.078;8.648;2023-09-18T10:53:05;4.93;;;1.98;;
19004;SDS011;9635;52.078;8.648;2023-09-18T10:58:07;5.65;;;1.77;;
19004;SDS011;9635;52.078;8.648;2023-09-18T11:03:13;3.63;;;1.80;;
19004;SDS011;9635;52.078;8.648;2023-09-18T11:08:28;4.45;;;1.88;;
19004;SDS011;9635;52.078;8.648;2023-09-18T11:13:34;4.47;;;1.88;;
19004;SDS011;9635;52.078;8.648;2023-09-18T11:18:41;5.68;;;2.35;;
19004;SDS011;9635;52.078;8.648;2023-09-18T11:23:44;4.00;;;1.30;;
19004;SDS011;9635;52.078;8.648;2023-09-18T11:28:48;5.50;;;1.80;;
19004;SDS011;9635;52.078;8.648;2023-09-18T11:33:53;3.72;;;1.58;;
19004;SDS011;9635;52.078;8.648;2023-09-18T11:38:56;8.20;;;1.83;;
19004;SDS011;9635;52.078;8.648;2023-09-18T11:49:41;6.15;;;1.65;;
19004;SDS011;9635;52.078;8.648;2023-09-18T11:54:51;4.13;;;1.92;;
19004;SDS011;9635;52.078;8.648;2023-09-18T11:59:54;3.72;;;1.70;;
19004;SDS011;9635;52.078;8.648;2023-09-18T12:05:09;7.82;;;1.90;;
19004;SDS011;9635;52.078;8.648;2023-09-18T12:10:13;4.13;;;1.55;;
19004;SDS011;9635;52.078;8.648;2023-09-18T12:15:18;1.67;;;1.50;;
19004;SDS011;9635;52.078;8.648;2023-09-18T12:20:23;3.15;;;1.63;;
19004;SDS011;9635;52.078;8.648;2023-09-18T12:25:26;2.33;;;1.45;;
19004;SDS011;9635;52.078;8.648;2023-09-18T12:30:30;4.47;;;1.50;;
19004;SDS011;9635;52.078;8.648;2023-09-18T12:35:36;5.20;;;1.58;;
19004;SDS011;9635;52.078;8.648;2023-09-18T12:40:42;3.42;;;1.30;;
19004;SDS011;9635;52.078;8.648;2023-09-18T12:45:47;4.43;;;1.58;;
19004;SDS011;9635;52.078;8.648;2023-09-18T12:50:53;2.92;;;1.30;;
19004;SDS011;9635;52.078;8.648;2023-09-18T12:56:04;4.85;;;1.45;;
19004;SDS011;9635;52.078;8.648;2023-09-18T13:01:08;4.07;;;1.40;;
19004;SDS011;9635;52.078;8.648;2023-09-18T13:06:17;2.53;;;1.52;;
19004;SDS011;9635;52.078;8.648;2023-09-18T13:11:21;4.15;;;1.42;;
19004;SDS011;9635;52.078;8.648;2023-09-18T13:16:24;3.13;;;1.58;;
19004;SDS011;9635;52.078;8.648;2023-09-18T13:21:28;1.95;;;1.30;;
19004;SDS011;9635;52.078;8.648;2023-09-18T13:26:31;1.98;;;1.00;;
19004;SDS011;9635;52.078;8.648;2023-09-18T13:31:34;3.92;;;1.55;;
19004;SDS011;9635;52.078;8.648;2023-09-18T13:36:39;3.95;;;1.45;;
19004;SDS011;9635;52.078;8.648;2023-09-18T13:41:43;2.35;;;1.40;;
19004;SDS011;9635;52.078;8.648;2023-09-18T13:46:46;3.65;;;1.60;;
19004;SDS011;9635;52.078;8.648;2023-09-18T13:51:50;2.88;;;1.40;;
19004;SDS011;9635;52.078;8.648;2023-09-18T13:56:53;1.92;;;1.08;;
19004;SDS011;9635;52.078;8.648;2023-09-18T14:01:58;5.55;;;1.23;;
19004;SDS011;9635;52.078;8.648;2023-09-18T14:07:03;3.50;;;1.80;;
19004;SDS011;9635;52.078;8.648;2023-09-18T14:12:06;2.47;;;1.23;;
19004;SDS011;9635;52.078;8.648;2023-09-18T14:17:09;5.35;;;1.27;;
19004;SDS011;9635;52.078;8.648;2023-09-18T14:22:14;3.15;;;1.20;;
19004;SDS011;9635;52.078;8.648;2023-09-18T14:27:17;2.78;;;1.45;;
19004;SDS011;9635;52.078;8.648;2023-09-18T14:32:20;1.98;;;1.45;;
19004;SDS011;9635;52.078;8.648;2023-09-18T14:37:25;4.10;;;1.27;;
19004;SDS011;9635;52.078;8.648;2023-09-18T14:42:27;4.07;;;1.75;;
19004;SDS011;9635;52.078;8.648;2023-09-18T14:47:30;2.78;;;1.00;;
19004;SDS011;9635;52.078;8.648;2023-09-18T14:52:35;4.07;;;1.15;;
19004;SDS011;9635;52.078;8.648;2023-09-18T14:57:38;4.03;;;1.33;;
19004;SDS011;9635;52.078;8.648;2023-09-18T15:02:40;1.83;;;1.25;;
19004;SDS011;9635;52.078;8.648;2023-09-18T15:07:45;3.70;;;1.60;;
19004;SDS011;9635;52.078;8.648;2023-09-18T15:12:48;1.92;;;1.40;;
19004;SDS011;9635;52.078;8.648;2023-09-18T15:17:51;2.88;;;1.52;;
19004;SDS011;9635;52.078;8.648;2023-09-18T15:22:56;4.65;;;1.50;;
19004;SDS011;9635;52.078;8.648;2023-09-18T15:27:59;4.75;;;1.77;;
19004;SDS011;9635;52.078;8.648;2023-09-18T15:33:02;2.55;;;1.60;;
19004;SDS011;9635;52.078;8.648;2023-09-18T15:38:07;2.50;;;1.60;;
19004;SDS011;9635;52.078;8.648;2023-09-18T15:43:10;2.72;;;1.27;;
19004;SDS011;9635;52.078;8.648;2023-09-18T15:48:13;5.40;;;1.42;;
19004;SDS011;9635;52.078;8.648;2023-09-18T15:53:17;8.20;;;1.45;;
19004;SDS011;9635;52.078;8.648;2023-09-18T15:58:20;4.72;;;1.35;;
19004;SDS011;9635;52.078;8.648;2023-09-18T16:03:25;2.65;;;1.20;;
19004;SDS011;9635;52.078;8.648;2023-09-18T16:08:30;2.50;;;1.38;;
19004;SDS011;9635;52.078;8.648;2023-09-18T16:13:33;3.17;;;1.77;;
19004;SDS011;9635;52.078;8.648;2023-09-18T16:18:36;2.95;;;1.70;;
19004;SDS011;9635;52.078;8.648;2023-09-18T16:23:41;3.10;;;1.80;;
19004;SDS011;9635;52.078;8.648;2023-09-18T16:28:44;2.65;;;1.60;;
19004;SDS011;9635;52.078;8.648;2023-09-18T16:33:48;3.67;;;1.42;;
19004;SDS011;9635;52.078;8.648;2023-09-18T16:38:52;5.20;;;1.75;;
19004;SDS011;9635;52.078;8.648;2023-09-18T16:43:55;3.47;;;1.90;;
19004;SDS011;9635;52.078;8.648;2023-09-18T16:48:58;5.57;;;1.33;;
19004;SDS011;9635;52.078;8.648;2023-09-18T16:54:02;2.42;;;1.30;;
19004;SDS011;9635;52.078;8.648;2023-09-18T16:59:06;2.75;;;1.45;;
19004;SDS011;9635;52.078;8.648;2023-09-18T17:04:09;3.20;;;1.40;;
19004;SDS011;9635;52.078;8.648;2023-09-18T17:09:14;3.80;;;1.50;;
19004;SDS011;9635;52.078;8.648;2023-09-18T17:14:18;2.85;;;1.60;;
19004;SDS011;9635;52.078;8.648;2023-09-18T17:19:20;2.92;;;1.50;;
19004;SDS011;9635;52.078;8.648;2023-09-18T17:24:25;4.50;;;1.77;;
19004;SDS011;9635;52.078;8.648;2023-09-18T17:29:27;6.55;;;2.08;;
19004;SDS011;9635;52.078;8.648;2023-09-18T17:34:31;2.88;;;1.58;;
19004;SDS011;9635;52.078;8.648;2023-09-18T17:39:35;3.45;;;1.70;;
19004;SDS011;9635;52.078;8.648;2023-09-18T17:44:38;2.97;;;1.55;;
19004;SDS011;9635;52.078;8.648;2023-09-18T17:49:41;2.85;;;1.60;;
19004;SDS011;9635;52.078;8.648;2023-09-18T17:54:46;2.22;;;1.88;;
19004;SDS011;9635;52.078;8.648;2023-09-18T17:59:49;2.88;;;1.75;;
19004;SDS011;9635;52.078;8.648;2023-09-18T18:04:53;2.80;;;1.95;;
19004;SDS011;9635;52.078;8.648;2023-09-18T18:09:58;3.15;;;2.03;;
19004;SDS011;9635;52.078;8.648;2023-09-18T18:15:01;4.25;;;2.00;;
19004;SDS011;9635;52.078;8.648;2023-09-18T18:20:06;3.17;;;1.70;;
19004;SDS011;9635;52.078;8.648;2023-09-18T18:25:11;4.25;;;1.90;;
19004;SDS011;9635;52.078;8.648;2023-09-18T18:30:17;1.90;;;1.77;;
19004;SDS011;9635;52.078;8.648;2023-09-18T18:35:21;1.73;;;1.45;;
19004;SDS011;9635;52.078;8.648;2023-09-18T18:40:26;2.75;;;1.65;;
19004;SDS011;9635;52.078;8.648;2023-09-18T18:45:29;2.33;;;1.33;;
19004;SDS011;9635;52.078;8.648;2023-09-18T18:50:31;1.92;;;1.70;;
19004;SDS011;9635;52.078;8.648;2023-09-18T18:55:37;2.20;;;1.40;;
19004;SDS011;9635;52.078;8.648;2023-09-18T19:00:40;2.92;;;1.60;;
19004;SDS011;9635;52.078;8.648;2023-09-18T19:05:43;3.08;;;1.40;;
19004;SDS011;9635;52.078;8.648;2023-09-18T19:10:48;3.05;;;1.77;;
19004;SDS011;9635;52.078;8.648;2023-09-18T19:15:51;3.15;;;1.60;;
19004;SDS011;9635;52.078;8.648;2023-09-18T19:20:56;2.35;;;1.70;;
19004;SDS011;9635;52.078;8.648;2023-09-18T19:26:01;1.02;;;1.00;;
19004;SDS011;9635;52.078;8.648;2023-09-18T19:31:05;11.63;;;1.80;;
19004;SDS011;9635;52.078;8.648;2023-09-18T19:36:09;0.60;;;0.60;;
19004;SDS011;9635;52.078;8.648;2023-09-18T19:41:17;15.75;;;2.50;;
19004;SDS011;9635;52.078;8.648;2023-09-18T19:46:20;7.10;;;1.30;;
19004;SDS011;9635;52.078;8.648;2023-09-18T19:51:23;6.32;;;1.80;;
19004;SDS011;9635;52.078;8.648;2023-09-18T19:56:28;7.95;;;2.05;;
19004;SDS011;9635;52.078;8.648;2023-09-18T20:01:32;4.38;;;1.70;;
19004;SDS011;9635;52.078;8.648;2023-09-18T20:06:35;3.05;;;2.00;;
19004;SDS011;9635;52.078;8.648;2023-09-18T20:11:40;3.83;;;1.85;;
19004;SDS011;9635;52.078;8.648;2023-09-18T20:16:43;3.40;;;2.20;;
19004;SDS011;9635;52.078;8.648;2023-09-18T20:21:49;3.65;;;2.00;;
19004;SDS011;9635;52.078;8.648;2023-09-18T20:26:54;5.82;;;2.17;;
19004;SDS011;9635;52.078;8.648;2023-09-18T20:31:58;3.30;;;1.98;;
19004;SDS011;9635;52.078;8.648;2023-09-18T20:37:01;3.78;;;2.60;;
19004;SDS011;9635;52.078;8.648;2023-09-18T20:42:08;6.25;;;2.22;;
19004;SDS011;9635;52.078;8.648;2023-09-18T20:47:11;7.25;;;2.60;;
19004;SDS011;9635;52.078;8.648;2023-09-18T20:52:14;3.97;;;1.73;;
19004;SDS011;9635;52.078;8.648;2023-09-18T20:57:18;6.72;;;2.63;;
19004;SDS011;9635;52.078;8.648;2023-09-18T21:02:21;6.85;;;2.53;;
19004;SDS011;9635;52.078;8.648;2023-09-18T21:07:26;2.42;;;2.08;;
19004;SDS011;9635;52.078;8.648;2023-09-18T21:12:31;2.88;;;1.67;;
19004;SDS011;9635;52.078;8.648;2023-09-18T21:17:34;3.03;;;1.83;;
19004;SDS011;9635;52.078;8.648;2023-09-18T21:22:37;6.03;;;2.20;;
19004;SDS011;9635;52.078;8.648;2023-09-18T21:27:42;3.88;;;2.10;;
19004;SDS011;9635;52.078;8.648;2023-09-18T21:32:45;4.88;;;2.13;;
19004;SDS011;9635;52.078;8.648;2023-09-18T21:37:48;3.20;;;2.00;;
19004;SDS011;9635;52.078;8.648;2023-09-18T21:42:55;6.75;;;1.70;;
19004;SDS011;9635;52.078;8.648;2023-09-18T21:47:58;2.63;;;1.70;;
19004;SDS011;9635;52.078;8.648;2023-09-18T21:53:03;3.10;;;2.08;;
19004;SDS011;9635;52.078;8.648;2023-09-18T21:58:07;1.65;;;1.55;;
19004;SDS011;9635;52.078;8.648;2023-09-18T22:03:10;1.90;;;1.50;;
19004;SDS011;9635;52.078;8.648;2023-09-18T22:08:14;3.15;;;1.80;;
19004;SDS011;9635;52.078;8.648;2023-09-18T22:13:18;1.88;;;1.50;;
19004;SDS011;9635;52.078;8.648;2023-09-18T22:18:21;3.83;;;1.80;;
19004;SDS011;9635;52.078;8.648;2023-09-18T22:23:24;2.53;;;1.23;;
19004;SDS011;9635;52.078;8.648;2023-09-18T22:28:30;2.72;;;1.60;;
19004;SDS011;9635;52.078;8.648;2023-09-18T22:33:33;3.10;;;1.95;;
19004;SDS011;9635;52.078;8.648;2023-09-18T22:38:40;5.25;;;2.08;;
19004;SDS011;9635;52.078;8.648;2023-09-18T22:55:10;2.75;;;2.30;;
19004;SDS011;9635;52.078;8.648;2023-09-18T23:00:16;3.38;;;2.22;;
19004;SDS011;9635;52.078;8.648;2023-09-18T23:05:21;6.25;;;2.20;;
19004;SDS011;9635;52.078;8.648;2023-09-18T23:10:27;4.72;;;2.40;;
19004;SDS011;9635;52.078;8.648;2023-09-18T23:15:29;4.05;;;2.22;;
19004;SDS011;9635;52.078;8.648;2023-09-18T23:20:35;6.40;;;2.95;;
19004;SDS011;9635;52.078;8.648;2023-09-18T23:25:40;5.65;;;2.97;;
19004;SDS011;9635;52.078;8.648;2023-09-18T23:30:45;6.05;;;2.95;;
19004;SDS011;9635;52.078;8.648;2023-09-18T23:35:49;2.92;;;2.15;;
19004;SDS011;9635;52.078;8.648;2023-09-18T23:40:53;9.05;;;3.03;;
19004;SDS011;9635;52.078;8.648;2023-09-18T23:45:56;4.03;;;3.08;;
19004;SDS011;9635;52.078;8.648;2023-09-18T23:51:00;9.82;;;3.60;;
19004;SDS011;9635;52.078;8.648;2023-09-18T23:56:07;3.78;;;3.10;;
